Time;durP1;ratioP1;P1;durP2;ratioP2;P2;SDS_P1;SDS_P2;PMS_P1;PMS_P2;Temp;Humidity;BMP_temperature;BMP_pressure;BME280_temperature;BME280_humidity;BME280_pressure;Samples;Min_cycle;Max_cycle;Signal;HPM_P1;HPM_P2
2022/10/21 00:02:11;;;;;;;36.50;20.40;;;;;;;;;;5070819;28;20051;-75
2022/10/21 00:04:37;;;;;;;30.33;20.20;;;;;;;;;;5070398;28;20044;-75
2022/10/21 00:07:03;;;;;;;37.65;20.30;;;;;;;;;;5070729;28;20064;-74
2022/10/21 00:09:29;;;;;;;32.25;19.10;;;;;;;;;;5070678;28;20055;-75
2022/10/21 00:11:55;;;;;;;37.60;21.17;;;;;;;;;;5070579;28;20434;-75
2022/10/21 00:14:21;;;;;;;32.50;20.42;;;;;;;;;;5054128;28;20036;-75
2022/10/21 00:16:47;;;;;;;31.60;20.17;;;;;;;;;;5071751;28;20956;-75
2022/10/21 00:19:13;;;;;;;36.85;20.02;;;;;;;;;;5070366;28;20032;-75
2022/10/21 00:21:41;;;;;;;34.35;19.15;;;;;;;;;;5070852;28;20636;-75
2022/10/21 00:24:07;;;;;;;29.23;18.48;;;;;;;;;;5070277;28;20044;-75
2022/10/21 00:26:33;;;;;;;30.52;19.42;;;;;;;;;;5070377;28;20043;-75
2022/10/21 00:28:59;;;;;;;34.65;20.63;;;;;;;;;;5070663;28;20390;-75
2022/10/21 00:31:26;;;;;;;31.90;19.48;;;;;;;;;;5053600;28;20066;-75
2022/10/21 00:33:52;;;;;;;32.47;19.10;;;;;;;;;;5070251;28;20072;-75
2022/10/21 00:36:18;;;;;;;27.40;18.20;;;;;;;;;;5070510;28;20467;-75
2022/10/21 00:38:45;;;;;;;27.83;19.40;;;;;;;;;;5069792;28;20075;-75
2022/10/21 00:41:12;;;;;;;33.13;20.00;;;;;;;;;;5070101;28;20044;-75
2022/10/21 00:43:55;;;;;;;35.88;20.02;;;;;;;;;;5071793;28;20037;-75
2022/10/21 00:46:24;;;;;;;35.42;20.90;;;;;;;;;;5071023;28;20055;-75
2022/10/21 00:48:55;;;;;;;43.38;21.15;;;;;;;;;;5053398;28;20131;-75
2022/10/21 00:51:21;;;;;;;32.45;19.90;;;;;;;;;;5069906;28;20045;-75
2022/10/21 00:53:48;;;;;;;42.15;19.67;;;;;;;;;;5069846;28;20490;-75
2022/10/21 00:56:17;;;;;;;34.25;20.70;;;;;;;;;;5070032;28;20052;-75
2022/10/21 00:58:45;;;;;;;36.03;19.95;;;;;;;;;;5069861;28;20048;-75
2022/10/21 01:01:11;;;;;;;38.30;19.75;;;;;;;;;;5069477;28;20087;-75
2022/10/21 01:03:37;;;;;;;30.08;18.58;;;;;;;;;;5069827;28;20048;-75
2022/10/21 01:06:06;;;;;;;31.88;19.67;;;;;;;;;;5069843;28;20067;-75
2022/10/21 01:08:33;;;;;;;33.55;19.48;;;;;;;;;;5069325;28;20043;-75
2022/10/21 01:11:00;;;;;;;35.70;20.83;;;;;;;;;;5069568;28;20076;-76
2022/10/21 01:13:32;;;;;;;36.72;21.60;;;;;;;;;;5069387;28;20049;-76
2022/10/21 01:16:17;;;;;;;39.67;19.80;;;;;;;;;;5069176;28;20127;-76
2022/10/21 01:18:49;;;;;;;32.50;19.48;;;;;;;;;;5069461;28;20045;-76
2022/10/21 01:21:20;;;;;;;31.65;19.45;;;;;;;;;;5069663;28;20132;-76
2022/10/21 01:23:56;;;;;;;30.80;18.42;;;;;;;;;;5069573;28;20481;-76
2022/10/21 01:26:41;;;;;;;29.73;18.73;;;;;;;;;;5069278;28;20036;-75
2022/10/21 01:29:10;;;;;;;30.95;18.15;;;;;;;;;;5069539;28;20048;-75
2022/10/21 01:31:36;;;;;;;28.92;18.70;;;;;;;;;;5069127;28;20033;-75
2022/10/21 01:34:08;;;;;;;33.35;19.42;;;;;;;;;;5052667;28;20371;-75
2022/10/21 01:37:00;;;;;;;34.22;19.52;;;;;;;;;;5069495;28;20044;-75
2022/10/21 01:39:47;;;;;;;29.77;19.70;;;;;;;;;;5053452;28;20079;-75
2022/10/21 01:42:25;;;;;;;33.03;19.30;;;;;;;;;;5069273;28;20128;-75
2022/10/21 01:45:00;;;;;;;35.20;19.05;;;;;;;;;;5069593;28;20036;-75
2022/10/21 01:47:31;;;;;;;31.15;19.20;;;;;;;;;;5069059;28;20036;-75
2022/10/21 01:49:59;;;;;;;28.20;17.73;;;;;;;;;;5069381;28;20084;-75
2022/10/21 01:52:25;;;;;;;34.53;19.00;;;;;;;;;;5069140;28;20046;-75
2022/10/21 01:55:00;;;;;;;32.17;18.88;;;;;;;;;;5068749;28;20036;-75
2022/10/21 01:57:33;;;;;;;31.73;18.85;;;;;;;;;;5069292;28;20075;-75
2022/10/21 01:59:59;;;;;;;32.10;20.35;;;;;;;;;;5068996;28;20524;-75
2022/10/21 02:02:31;;;;;;;31.77;18.92;;;;;;;;;;5052328;28;20037;-75
2022/10/21 02:04:59;;;;;;;37.95;20.42;;;;;;;;;;5052663;28;20086;-75
2022/10/21 02:07:25;;;;;;;50.00;23.13;;;;;;;;;;5068945;28;20116;-75
2022/10/21 02:09:51;;;;;;;36.80;22.42;;;;;;;;;;5068740;28;20083;-75
2022/10/21 02:12:18;;;;;;;45.10;21.10;;;;;;;;;;5068725;28;20068;-75
2022/10/21 02:14:47;;;;;;;36.08;20.52;;;;;;;;;;5068957;28;20044;-75
2022/10/21 02:17:15;;;;;;;43.40;21.50;;;;;;;;;;5068500;28;20044;-75
2022/10/21 02:19:41;;;;;;;42.00;21.45;;;;;;;;;;5070077;28;20047;-75
2022/10/21 02:22:08;;;;;;;41.58;21.20;;;;;;;;;;5068874;28;20075;-75
2022/10/21 02:24:46;;;;;;;40.28;21.98;;;;;;;;;;5068489;28;20039;-75
2022/10/21 02:27:12;;;;;;;41.75;21.50;;;;;;;;;;5054235;28;20048;-75
2022/10/21 02:29:41;;;;;;;47.55;23.10;;;;;;;;;;5072603;28;20044;-75
2022/10/21 02:32:15;;;;;;;42.30;23.05;;;;;;;;;;5072847;28;20087;-75
2022/10/21 02:35:00;;;;;;;39.10;21.75;;;;;;;;;;5072464;28;20036;-75
2022/10/21 02:37:39;;;;;;;44.40;22.85;;;;;;;;;;5072363;28;20040;-75
2022/10/21 02:40:08;;;;;;;42.65;21.98;;;;;;;;;;5073701;28;20041;-75
2022/10/21 02:42:37;;;;;;;39.33;21.90;;;;;;;;;;5072822;28;20131;-75
2022/10/21 02:45:03;;;;;;;39.92;23.23;;;;;;;;;;5073715;28;20032;-75
2022/10/21 02:47:29;;;;;;;39.22;21.75;;;;;;;;;;5072562;28;20043;-75
2022/10/21 02:49:56;;;;;;;42.35;23.55;;;;;;;;;;5055672;28;20037;-75
2022/10/21 02:52:22;;;;;;;37.88;21.77;;;;;;;;;;5071790;28;20133;-75
2022/10/21 02:54:48;;;;;;;50.38;24.58;;;;;;;;;;5055611;28;20102;-75
2022/10/21 02:57:14;;;;;;;47.53;24.95;;;;;;;;;;5072595;28;20671;-75
2022/10/21 02:59:40;;;;;;;41.75;23.27;;;;;;;;;;5071947;28;20179;-75
2022/10/21 03:02:06;;;;;;;45.10;22.67;;;;;;;;;;5072402;28;20048;-75
2022/10/21 03:04:32;;;;;;;41.90;23.27;;;;;;;;;;5073647;28;20048;-75
2022/10/21 03:06:58;;;;;;;34.58;21.30;;;;;;;;;;5071882;28;20147;-75
2022/10/21 03:09:24;;;;;;;35.10;20.27;;;;;;;;;;5072180;28;20059;-75
2022/10/21 03:11:50;;;;;;;38.08;21.80;;;;;;;;;;5071786;28;20065;-75
2022/10/21 03:14:16;;;;;;;38.75;21.92;;;;;;;;;;5071354;28;20049;-75
2022/10/21 03:16:42;;;;;;;38.08;21.63;;;;;;;;;;5071909;28;20164;-75
2022/10/21 03:19:11;;;;;;;47.17;22.95;;;;;;;;;;5073343;28;20487;-75
2022/10/21 03:21:37;;;;;;;39.30;22.25;;;;;;;;;;5071316;28;20154;-75
2022/10/21 03:24:03;;;;;;;42.50;22.55;;;;;;;;;;5054863;28;20033;-75
2022/10/21 03:26:29;;;;;;;75.95;24.58;;;;;;;;;;5071620;28;20094;-75
2022/10/21 03:28:55;;;;;;;33.38;20.45;;;;;;;;;;5071298;28;20044;-75
2022/10/21 03:31:21;;;;;;;45.65;23.00;;;;;;;;;;5071899;28;20087;-75
2022/10/21 03:33:47;;;;;;;36.28;19.65;;;;;;;;;;5054795;28;20086;-75
2022/10/21 03:36:13;;;;;;;37.45;21.13;;;;;;;;;;5071617;28;20044;-75
2022/10/21 03:38:39;;;;;;;33.90;20.02;;;;;;;;;;5070245;28;20044;-75
2022/10/21 03:41:05;;;;;;;38.35;21.20;;;;;;;;;;5072848;28;20124;-75
2022/10/21 03:43:31;;;;;;;35.70;20.80;;;;;;;;;;5072809;28;20135;-75
2022/10/21 03:45:57;;;;;;;37.30;20.10;;;;;;;;;;5071121;28;20495;-75
2022/10/21 03:48:23;;;;;;;36.28;19.73;;;;;;;;;;5054949;28;20155;-75
2022/10/21 03:50:49;;;;;;;30.58;19.02;;;;;;;;;;5054856;28;20041;-75
2022/10/21 03:53:15;;;;;;;34.13;19.80;;;;;;;;;;5070739;28;20040;-74
2022/10/21 03:55:42;;;;;;;31.80;19.48;;;;;;;;;;5071145;28;20127;-74
2022/10/21 03:58:08;;;;;;;31.63;19.85;;;;;;;;;;5071405;28;20056;-74
2022/10/21 04:00:34;;;;;;;34.10;20.65;;;;;;;;;;5070559;28;20036;-74
2022/10/21 04:03:00;;;;;;;28.98;18.52;;;;;;;;;;5071240;28;20090;-74
2022/10/21 04:05:26;;;;;;;30.15;19.45;;;;;;;;;;5071001;28;20045;-74
2022/10/21 04:07:52;;;;;;;32.92;20.40;;;;;;;;;;5070548;28;20101;-74
2022/10/21 04:10:18;;;;;;;32.97;19.88;;;;;;;;;;5054029;28;20076;-74
2022/10/21 04:12:44;;;;;;;37.45;21.77;;;;;;;;;;5070497;28;20111;-74
2022/10/21 04:15:12;;;;;;;32.83;21.20;;;;;;;;;;5070593;28;20051;-74
2022/10/21 04:17:38;;;;;;;55.88;23.00;;;;;;;;;;5070678;28;20098;-74
2022/10/21 04:20:04;;;;;;;36.70;22.20;;;;;;;;;;5053704;28;20044;-74
2022/10/21 04:22:30;;;;;;;40.97;21.30;;;;;;;;;;5070117;28;20036;-74
2022/10/21 04:24:56;;;;;;;43.53;22.25;;;;;;;;;;5072068;28;20529;-74
2022/10/21 04:27:22;;;;;;;40.40;22.35;;;;;;;;;;5070620;28;20170;-74
2022/10/21 04:29:49;;;;;;;40.22;22.40;;;;;;;;;;5070201;28;20047;-74
2022/10/21 04:32:15;;;;;;;41.75;22.10;;;;;;;;;;5070550;28;20131;-74
2022/10/21 04:34:41;;;;;;;44.08;24.15;;;;;;;;;;5053717;28;20118;-74
2022/10/21 04:37:07;;;;;;;48.15;22.60;;;;;;;;;;5069755;28;20052;-74
2022/10/21 04:39:34;;;;;;;42.42;22.17;;;;;;;;;;5069830;28;20047;-74
2022/10/21 04:42:00;;;;;;;48.63;22.48;;;;;;;;;;5070235;28;20137;-74
2022/10/21 04:44:26;;;;;;;42.83;20.95;;;;;;;;;;5052654;28;20040;-74
2022/10/21 04:46:52;;;;;;;42.10;23.20;;;;;;;;;;5070029;28;20040;-74
2022/10/21 04:49:18;;;;;;;51.97;24.15;;;;;;;;;;5069581;28;20052;-74
2022/10/21 04:51:44;;;;;;;45.70;24.10;;;;;;;;;;5069533;28;20380;-74
2022/10/21 04:54:12;;;;;;;54.28;23.95;;;;;;;;;;5070123;28;20050;-74
2022/10/21 04:56:38;;;;;;;51.25;25.75;;;;;;;;;;5069918;28;20144;-74
2022/10/21 04:59:04;;;;;;;56.50;25.77;;;;;;;;;;5069580;28;20484;-74
2022/10/21 05:01:30;;;;;;;54.70;26.08;;;;;;;;;;5053117;28;20048;-74
2022/10/21 05:03:56;;;;;;;49.65;26.27;;;;;;;;;;5070099;28;20040;-74
2022/10/21 05:06:22;;;;;;;51.28;23.95;;;;;;;;;;5052822;28;20128;-74
2022/10/21 05:08:48;;;;;;;57.38;22.42;;;;;;;;;;5069456;28;20376;-74
2022/10/21 05:11:14;;;;;;;50.22;22.35;;;;;;;;;;5069360;28;20110;-74
2022/10/21 05:13:40;;;;;;;39.55;23.23;;;;;;;;;;5068834;28;20103;-74
2022/10/21 05:16:06;;;;;;;35.67;22.02;;;;;;;;;;5069370;28;20056;-74
2022/10/21 05:18:33;;;;;;;43.45;21.35;;;;;;;;;;5069605;28;20085;-74
2022/10/21 05:20:59;;;;;;;37.72;22.38;;;;;;;;;;5069054;28;20399;-74
2022/10/21 05:23:25;;;;;;;40.88;21.85;;;;;;;;;;5069511;28;20071;-74
2022/10/21 05:25:52;;;;;;;47.95;21.83;;;;;;;;;;5069141;28;20424;-74
2022/10/21 05:28:18;;;;;;;39.72;22.40;;;;;;;;;;5069143;28;20117;-74
2022/10/21 05:30:44;;;;;;;35.75;20.67;;;;;;;;;;5069566;28;20040;-74
2022/10/21 05:33:10;;;;;;;83.40;23.50;;;;;;;;;;5069197;28;20067;-74
2022/10/21 05:35:36;;;;;;;43.42;21.27;;;;;;;;;;5068926;28;20081;-74
2022/10/21 05:38:03;;;;;;;62.67;20.38;;;;;;;;;;5069425;28;20436;-74
2022/10/21 05:40:29;;;;;;;38.70;21.90;;;;;;;;;;5070757;28;20071;-75
2022/10/21 05:42:55;;;;;;;39.40;21.08;;;;;;;;;;5069153;28;20125;-75
2022/10/21 05:45:21;;;;;;;49.85;21.38;;;;;;;;;;5069391;28;20048;-75
2022/10/21 05:47:48;;;;;;;38.75;20.65;;;;;;;;;;5069618;28;20127;-75
2022/10/21 05:50:14;;;;;;;52.30;22.38;;;;;;;;;;5068951;28;20041;-71
2022/10/21 05:52:40;;;;;;;48.20;22.65;;;;;;;;;;5069549;28;20051;-68
2022/10/21 05:55:06;;;;;;;40.95;21.52;;;;;;;;;;5070534;28;20388;-68
2022/10/21 05:57:33;;;;;;;49.95;22.58;;;;;;;;;;5069914;28;20467;-71
2022/10/21 05:59:59;;;;;;;37.60;21.38;;;;;;;;;;5052180;28;20036;-70
2022/10/21 06:02:25;;;;;;;34.15;19.60;;;;;;;;;;5071900;28;20128;-70
2022/10/21 06:04:51;;;;;;;34.90;20.02;;;;;;;;;;5072942;28;20048;-72
2022/10/21 06:07:17;;;;;;;36.42;20.23;;;;;;;;;;5073133;28;20119;-72
2022/10/21 06:09:43;;;;;;;37.40;21.13;;;;;;;;;;5072839;28;20125;-72
2022/10/21 06:12:09;;;;;;;34.53;19.40;;;;;;;;;;5072459;28;20060;-72
2022/10/21 06:14:35;;;;;;;42.80;20.90;;;;;;;;;;5072380;28;20072;-73
2022/10/21 06:17:02;;;;;;;36.33;20.65;;;;;;;;;;5072434;28;20127;-73
2022/10/21 06:19:29;;;;;;;33.38;19.85;;;;;;;;;;5072492;28;20043;-71
2022/10/21 06:21:55;;;;;;;32.92;19.27;;;;;;;;;;5073015;28;20098;-72
2022/10/21 06:24:23;;;;;;;31.20;19.40;;;;;;;;;;5072853;28;20434;-72
2022/10/21 06:26:49;;;;;;;38.20;20.55;;;;;;;;;;5074015;28;20040;-72
2022/10/21 06:29:16;;;;;;;34.17;18.77;;;;;;;;;;5072778;28;20684;-72
2022/10/21 06:31:42;;;;;;;40.40;20.85;;;;;;;;;;5072441;28;20067;-72
2022/10/21 06:34:09;;;;;;;44.22;20.98;;;;;;;;;;5071454;28;20040;-70
2022/10/21 06:36:37;;;;;;;35.53;19.70;;;;;;;;;;5073870;28;20039;-70
2022/10/21 06:39:03;;;;;;;33.65;19.67;;;;;;;;;;5073928;28;20503;-72
2022/10/21 06:41:29;;;;;;;31.85;19.00;;;;;;;;;;5071765;28;20048;-69
2022/10/21 06:43:55;;;;;;;35.72;19.38;;;;;;;;;;5072894;28;20118;-69
2022/10/21 06:46:21;;;;;;;36.55;21.08;;;;;;;;;;5074096;28;20114;-70
2022/10/21 06:48:47;;;;;;;37.72;20.52;;;;;;;;;;5071251;28;20399;-69
2022/10/21 06:51:18;;;;;;;40.28;21.27;;;;;;;;;;5073517;28;20044;-70
2022/10/21 06:53:44;;;;;;;43.20;21.58;;;;;;;;;;5072098;28;20040;-69
2022/10/21 06:56:17;;;;;;;36.80;20.70;;;;;;;;;;5071551;28;20202;-68
2022/10/21 06:58:46;;;;;;;34.58;19.48;;;;;;;;;;5072046;28;20074;-67
2022/10/21 07:01:14;;;;;;;34.13;19.15;;;;;;;;;;5071591;28;20041;-67
2022/10/21 07:03:40;;;;;;;32.33;19.45;;;;;;;;;;5071331;28;20040;-67
2022/10/21 07:06:06;;;;;;;49.70;22.13;;;;;;;;;;5067311;28;20028;-72
2022/10/21 07:08:33;;;;;;;33.70;18.60;;;;;;;;;;5069274;28;20048;-68
2022/10/21 07:10:59;;;;;;;35.22;19.63;;;;;;;;;;5071609;28;20060;-69
2022/10/21 07:13:25;;;;;;;47.92;20.98;;;;;;;;;;5070040;28;20055;-67
2022/10/21 07:16:01;;;;;;;40.78;20.35;;;;;;;;;;5072817;28;20043;-68
2022/10/21 07:18:27;;;;;;;52.30;23.00;;;;;;;;;;5070457;28;20301;-70
2022/10/21 07:20:53;;;;;;;50.85;23.65;;;;;;;;;;5071271;28;20102;-73
2022/10/21 07:23:19;;;;;;;42.22;22.55;;;;;;;;;;5069843;28;20073;-71
2022/10/21 07:25:45;;;;;;;42.03;21.42;;;;;;;;;;5064584;28;20108;-63
2022/10/21 07:28:11;;;;;;;49.17;22.95;;;;;;;;;;5070609;28;20040;-63
2022/10/21 07:30:44;;;;;;;46.47;21.73;;;;;;;;;;5070561;28;20059;-61
2022/10/21 07:33:10;;;;;;;49.55;23.33;;;;;;;;;;5069925;28;20052;-63
2022/10/21 07:35:37;;;;;;;57.58;24.92;;;;;;;;;;5071614;28;20043;-62
2022/10/21 07:38:03;;;;;;;47.58;23.27;;;;;;;;;;5070621;28;20032;-61
2022/10/21 07:40:29;;;;;;;54.78;24.13;;;;;;;;;;5071495;28;20049;-61
2022/10/21 07:42:56;;;;;;;46.50;23.75;;;;;;;;;;5071555;28;20128;-61
2022/10/21 07:45:22;;;;;;;42.38;21.85;;;;;;;;;;5070801;28;20158;-61
2022/10/21 07:47:48;;;;;;;53.08;24.15;;;;;;;;;;5071173;28;20530;-61
2022/10/21 07:50:14;;;;;;;50.17;24.50;;;;;;;;;;5070602;28;20063;-61
2022/10/21 07:52:44;;;;;;;45.25;23.13;;;;;;;;;;5070904;28;20680;-62
2022/10/21 07:55:11;;;;;;;46.15;23.27;;;;;;;;;;5070071;28;20106;-61
2022/10/21 07:57:37;;;;;;;46.00;24.80;;;;;;;;;;5070686;28;20037;-61
2022/10/21 08:00:03;;;;;;;42.65;24.30;;;;;;;;;;5071178;28;20036;-61
2022/10/21 08:02:29;;;;;;;51.67;24.58;;;;;;;;;;5071307;28;20040;-61
2022/10/21 08:04:55;;;;;;;52.17;24.42;;;;;;;;;;5070680;28;20537;-61
2022/10/21 08:07:21;;;;;;;49.97;24.33;;;;;;;;;;5070701;28;20037;-62
2022/10/21 08:09:47;;;;;;;43.10;23.77;;;;;;;;;;5071252;28;20664;-60
2022/10/21 08:12:14;;;;;;;49.00;25.25;;;;;;;;;;5068997;28;20067;-60
2022/10/21 08:14:40;;;;;;;55.30;26.17;;;;;;;;;;5070983;28;20434;-60
2022/10/21 08:17:06;;;;;;;45.28;23.67;;;;;;;;;;5070566;28;20079;-60
2022/10/21 08:19:32;;;;;;;53.92;25.08;;;;;;;;;;5069963;28;20048;-62
2022/10/21 08:21:58;;;;;;;52.80;25.05;;;;;;;;;;5070976;28;20489;-62
2022/10/21 08:24:24;;;;;;;56.95;27.13;;;;;;;;;;5069701;28;20106;-62
2022/10/21 08:26:50;;;;;;;50.50;24.80;;;;;;;;;;5069956;28;20463;-60
2022/10/21 08:29:17;;;;;;;53.90;25.77;;;;;;;;;;5070290;28;20036;-61
2022/10/21 08:31:43;;;;;;;55.90;25.60;;;;;;;;;;5070806;28;20573;-61
2022/10/21 08:34:09;;;;;;;54.42;26.33;;;;;;;;;;5068335;28;20040;-61
2022/10/21 08:36:36;;;;;;;50.88;25.48;;;;;;;;;;5070558;28;20040;-62
2022/10/21 08:39:02;;;;;;;56.33;26.17;;;;;;;;;;5070321;28;20123;-61
2022/10/21 08:41:28;;;;;;;54.35;26.25;;;;;;;;;;5070385;28;20453;-62
2022/10/21 08:43:57;;;;;;;57.10;26.17;;;;;;;;;;5070641;28;20098;-61
2022/10/21 08:46:29;;;;;;;48.70;24.77;;;;;;;;;;5069908;28;20044;-62
2022/10/21 08:49:01;;;;;;;56.78;26.35;;;;;;;;;;5069330;28;20082;-61
2022/10/21 08:51:30;;;;;;;55.70;25.10;;;;;;;;;;5070343;28;20036;-61
2022/10/21 08:53:59;;;;;;;45.70;23.63;;;;;;;;;;5070398;28;20043;-61
2022/10/21 08:56:26;;;;;;;56.78;25.08;;;;;;;;;;5060881;28;20094;-62
2022/10/21 08:58:52;;;;;;;49.30;24.23;;;;;;;;;;5068553;28;20040;-61
2022/10/21 09:01:24;;;;;;;58.83;25.38;;;;;;;;;;5069720;28;20056;-61
2022/10/21 09:03:54;;;;;;;54.33;25.00;;;;;;;;;;5069148;28;20075;-60
2022/10/21 09:06:20;;;;;;;55.75;24.70;;;;;;;;;;5069835;28;20082;-61
2022/10/21 09:08:51;;;;;;;53.63;24.45;;;;;;;;;;5069700;28;20431;-62
2022/10/21 09:11:26;;;;;;;51.22;24.63;;;;;;;;;;5068630;28;20050;-62
2022/10/21 09:14:11;;;;;;;54.63;25.20;;;;;;;;;;5069918;28;20494;-62
2022/10/21 09:17:09;;;;;;;49.65;23.88;;;;;;;;;;5068921;28;20048;-61
2022/10/21 09:19:53;;;;;;;50.97;24.45;;;;;;;;;;5045764;28;20125;-61
2022/10/21 09:22:38;;;;;;;48.70;24.05;;;;;;;;;;5051868;28;20048;-61
2022/10/21 09:25:16;;;;;;;54.83;24.30;;;;;;;;;;5068928;28;20115;-63
2022/10/21 09:27:42;;;;;;;54.03;23.63;;;;;;;;;;5069418;28;20036;-62
2022/10/21 09:30:13;;;;;;;48.53;22.63;;;;;;;;;;5068206;28;20055;-62
2022/10/21 09:32:40;;;;;;;44.40;22.58;;;;;;;;;;5069391;28;20052;-62
2022/10/21 09:35:25;;;;;;;49.15;22.45;;;;;;;;;;5069543;28;20384;-62
2022/10/21 09:37:53;;;;;;;37.38;20.63;;;;;;;;;;5069667;28;20115;-61
2022/10/21 09:40:27;;;;;;;29.80;17.45;;;;;;;;;;5068181;28;20643;-61
2022/10/21 09:42:54;;;;;;;38.40;19.83;;;;;;;;;;5069675;28;20072;-62
2022/10/21 09:45:31;;;;;;;35.17;19.52;;;;;;;;;;5068464;28;20059;-61
2022/10/21 09:47:58;;;;;;;40.70;21.52;;;;;;;;;;5069244;28;20163;-61
2022/10/21 09:50:25;;;;;;;35.58;20.73;;;;;;;;;;5068788;28;20390;-62
2022/10/21 09:52:57;;;;;;;37.65;19.45;;;;;;;;;;5069596;28;20036;-61
2022/10/21 09:55:24;;;;;;;40.63;19.77;;;;;;;;;;5068975;28;20044;-60
2022/10/21 09:58:00;;;;;;;39.50;21.45;;;;;;;;;;5068423;28;20040;-61
2022/10/21 10:00:43;;;;;;;30.70;17.83;;;;;;;;;;5068032;28;20040;-62
2022/10/21 10:03:09;;;;;;;32.10;18.75;;;;;;;;;;5066913;28;20052;-62
2022/10/21 10:05:40;;;;;;;23.75;15.88;;;;;;;;;;5067880;28;20390;-61
2022/10/21 10:08:24;;;;;;;32.05;17.48;;;;;;;;;;5064448;28;20036;-62
2022/10/21 10:10:50;;;;;;;32.05;16.75;;;;;;;;;;5067801;28;20093;-62
2022/10/21 10:13:18;;;;;;;32.92;16.33;;;;;;;;;;5068147;28;20135;-63
2022/10/21 10:15:44;;;;;;;29.50;16.92;;;;;;;;;;5067595;28;20044;-60
2022/10/21 10:18:21;;;;;;;31.02;15.95;;;;;;;;;;5068636;28;20036;-61
2022/10/21 10:21:03;;;;;;;30.63;16.88;;;;;;;;;;5068694;28;20052;-60
2022/10/21 10:23:29;;;;;;;28.38;16.88;;;;;;;;;;5068921;28;20040;-60
2022/10/21 10:25:55;;;;;;;33.25;18.65;;;;;;;;;;5068325;28;20028;-61
2022/10/21 10:28:24;;;;;;;25.58;15.15;;;;;;;;;;5068571;28;20044;-60
2022/10/21 10:30:52;;;;;;;27.73;14.93;;;;;;;;;;5064864;28;20043;-61
2022/10/21 10:33:20;;;;;;;30.40;15.80;;;;;;;;;;5068600;28;20398;-60
2022/10/21 10:35:48;;;;;;;27.80;14.82;;;;;;;;;;5068555;28;20047;-60
2022/10/21 10:38:34;;;;;;;22.83;13.60;;;;;;;;;;5067218;28;20043;-60
2022/10/21 10:41:06;;;;;;;31.15;15.27;;;;;;;;;;5065355;28;20049;-61
2022/10/21 10:43:33;;;;;;;27.60;15.30;;;;;;;;;;5067425;28;20052;-61
2022/10/21 10:46:00;;;;;;;29.45;15.40;;;;;;;;;;5068065;28;20099;-59
2022/10/21 10:48:36;;;;;;;23.92;13.70;;;;;;;;;;5070493;28;20485;-61
2022/10/21 10:51:06;;;;;;;29.88;15.18;;;;;;;;;;5071782;28;20076;-60
2022/10/21 10:53:33;;;;;;;28.33;14.85;;;;;;;;;;5071907;28;20443;-62
2022/10/21 10:56:18;;;;;;;27.60;15.57;;;;;;;;;;5071991;28;20055;-61
2022/10/21 10:58:47;;;;;;;24.85;14.30;;;;;;;;;;5072027;28;20135;-61
2022/10/21 11:01:18;;;;;;;26.13;13.73;;;;;;;;;;5070695;28;20055;-61
2022/10/21 11:03:55;;;;;;;24.38;14.02;;;;;;;;;;5071651;28;20040;-65
2022/10/21 11:06:27;;;;;;;22.08;12.57;;;;;;;;;;5071802;28;20043;-66
2022/10/21 11:08:57;;;;;;;19.98;12.68;;;;;;;;;;5059196;28;20036;-65
2022/10/21 11:11:29;;;;;;;24.30;13.25;;;;;;;;;;5071265;28;20052;-65
2022/10/21 11:13:56;;;;;;;22.25;13.85;;;;;;;;;;5072133;28;20087;-65
2022/10/21 11:16:40;;;;;;;23.50;12.73;;;;;;;;;;5071915;28;20139;-66
2022/10/21 11:19:25;;;;;;;21.20;11.63;;;;;;;;;;5072397;28;20044;-67
2022/10/21 11:21:52;;;;;;;24.90;10.80;;;;;;;;;;5072623;28;20044;-65
2022/10/21 11:24:37;;;;;;;19.27;9.98;;;;;;;;;;5072225;28;20545;-65
2022/10/21 11:27:11;;;;;;;17.92;9.35;;;;;;;;;;5072069;28;20453;-66
2022/10/21 11:29:55;;;;;;;16.30;8.98;;;;;;;;;;5071920;28;20094;-66
2022/10/21 11:32:36;;;;;;;13.77;8.85;;;;;;;;;;5072216;28;20197;-65
2022/10/21 11:35:09;;;;;;;15.20;8.68;;;;;;;;;;5070417;28;20059;-64
2022/10/21 11:37:35;;;;;;;14.05;9.57;;;;;;;;;;5072148;28;20041;-65
2022/10/21 11:40:04;;;;;;;16.48;8.43;;;;;;;;;;5072355;28;20370;-66
2022/10/21 11:42:40;;;;;;;12.75;8.43;;;;;;;;;;5071122;28;20708;-66
2022/10/21 11:45:06;;;;;;;16.30;8.90;;;;;;;;;;5071726;28;20044;-64
2022/10/21 11:47:38;;;;;;;19.33;9.30;;;;;;;;;;5072423;28;20422;-67
2022/10/21 11:50:07;;;;;;;17.05;8.43;;;;;;;;;;5072164;28;20051;-67
2022/10/21 11:52:42;;;;;;;13.65;8.38;;;;;;;;;;5069803;28;20052;-67
2022/10/21 11:55:22;;;;;;;12.82;7.55;;;;;;;;;;5071750;28;20044;-67
2022/10/21 11:57:48;;;;;;;13.45;7.50;;;;;;;;;;5071969;28;20075;-67
2022/10/21 12:00:14;;;;;;;17.13;8.60;;;;;;;;;;5068722;28;20052;-67
2022/10/21 12:02:43;;;;;;;18.10;8.63;;;;;;;;;;5070413;28;20368;-67
2022/10/21 12:05:16;;;;;;;14.57;8.00;;;;;;;;;;5071971;28;20464;-67
2022/10/21 12:07:42;;;;;;;;;;;;;;;;;;5072147;28;20044;-67
2022/10/21 12:10:13;;;;;;;15.63;7.95;;;;;;;;;;5071604;28;20449;-67
2022/10/21 12:12:45;;;;;;;13.30;7.65;;;;;;;;;;5071662;28;20444;-67
2022/10/21 12:15:13;;;;;;;14.80;8.27;;;;;;;;;;5071362;28;20056;-67
2022/10/21 12:17:39;;;;;;;11.80;8.30;;;;;;;;;;5071909;28;20883;-67
2022/10/21 12:20:08;;;;;;;12.25;7.45;;;;;;;;;;5071624;28;20656;-67
2022/10/21 12:22:34;;;;;;;15.57;8.30;;;;;;;;;;5071469;28;20482;-68
2022/10/21 12:25:12;;;;;;;15.98;10.38;;;;;;;;;;5071506;28;20517;-67
2022/10/21 12:27:44;;;;;;;17.08;8.48;;;;;;;;;;5053739;28;20036;-67
2022/10/21 12:30:11;;;;;;;25.60;10.02;;;;;;;;;;5069267;28;20202;-68
2022/10/21 12:33:00;;;;;;;15.20;8.45;;;;;;;;;;5071571;28;20048;-67
2022/10/21 12:35:28;;;;;;;16.63;9.52;;;;;;;;;;5060540;28;20068;-67
2022/10/21 12:37:54;;;;;;;15.07;9.80;;;;;;;;;;5070777;28;20498;-67
2022/10/21 12:40:26;;;;;;;17.90;9.38;;;;;;;;;;5069542;28;20079;-67
2022/10/21 12:42:58;;;;;;;15.27;9.40;;;;;;;;;;5071248;28;20133;-67
2022/10/21 12:45:24;;;;;;;;;;;;;;;;;;5070111;28;20056;-67
2022/10/21 12:47:50;;;;;;;23.23;10.07;;;;;;;;;;5070992;28;19920;-67
2022/10/21 12:50:16;;;;;;;19.25;9.65;;;;;;;;;;5071027;28;20514;-67
2022/10/21 12:52:43;;;;;;;17.15;9.13;;;;;;;;;;5070421;28;20463;-67
2022/10/21 12:55:27;;;;;;;17.20;9.88;;;;;;;;;;5070909;28;20040;-67
2022/10/21 12:58:01;;;;;;;15.20;8.55;;;;;;;;;;5069607;28;20044;-68
2022/10/21 13:00:27;;;;;;;19.75;8.80;;;;;;;;;;5070513;28;20044;-68
2022/10/21 13:03:02;;;;;;;15.70;9.60;;;;;;;;;;5070820;28;20443;-67
2022/10/21 13:05:54;;;;;;;15.10;9.23;;;;;;;;;;5069087;28;20040;-67
2022/10/21 13:08:24;;;;;;;17.83;8.98;;;;;;;;;;5048846;28;20572;-67
2022/10/21 13:11:05;;;;;;;17.98;8.80;;;;;;;;;;5070281;28;20063;-67
2022/10/21 13:13:39;;;;;;;14.55;8.85;;;;;;;;;;5068432;28;20057;-68
2022/10/21 13:16:20;;;;;;;15.95;9.10;;;;;;;;;;5070659;28;20063;-68
2022/10/21 13:19:02;;;;;;;15.80;8.70;;;;;;;;;;5070260;28;20494;-68
2022/10/21 13:21:40;;;;;;;12.70;8.43;;;;;;;;;;5070074;28;20048;-67
2022/10/21 13:24:12;;;;;;;13.45;8.13;;;;;;;;;;5069330;28;20524;-67
2022/10/21 13:26:38;;;;;;;;;;;;;;;;;;5070534;28;20036;-67
2022/10/21 13:29:10;;;;;;;19.85;9.00;;;;;;;;;;5070330;28;20259;-67
2022/10/21 13:31:36;;;;;;;16.02;8.15;;;;;;;;;;5071049;28;20036;-67
2022/10/21 13:34:02;;;;;;;13.13;7.80;;;;;;;;;;5069219;28;20067;-67
2022/10/21 13:36:42;;;;;;;17.25;8.05;;;;;;;;;;5068909;28;20052;-67
2022/10/21 13:39:29;;;;;;;16.92;8.55;;;;;;;;;;5070818;28;20055;-67
2022/10/21 13:42:01;;;;;;;10.80;6.53;;;;;;;;;;5070968;28;20044;-67
2022/10/21 13:44:29;;;;;;;10.37;6.13;;;;;;;;;;5070463;28;20040;-67
2022/10/21 13:46:57;;;;;;;13.93;7.30;;;;;;;;;;5071002;28;20052;-68
2022/10/21 13:49:28;;;;;;;11.55;5.97;;;;;;;;;;5070646;28;20235;-68
2022/10/21 13:51:54;;;;;;;12.38;5.75;;;;;;;;;;5070330;28;20459;-67
2022/10/21 13:54:20;;;;;;;11.30;5.57;;;;;;;;;;5070743;28;20090;-67
2022/10/21 13:56:46;;;;;;;12.70;5.38;;;;;;;;;;5070627;28;20127;-67
2022/10/21 13:59:23;;;;;;;11.60;5.30;;;;;;;;;;5070211;28;20090;-67
2022/10/21 14:01:53;;;;;;;10.35;4.80;;;;;;;;;;5070318;28;20094;-67
2022/10/21 14:04:21;;;;;;;10.52;4.80;;;;;;;;;;5069099;28;20037;-67
2022/10/21 14:06:56;;;;;;;9.02;4.95;;;;;;;;;;5069981;28;20037;-67
2022/10/21 14:09:24;;;;;;;12.75;4.35;;;;;;;;;;5070318;28;20219;-67
2022/10/21 14:11:52;;;;;;;9.43;4.57;;;;;;;;;;5070263;28;20167;-67
2022/10/21 14:14:20;;;;;;;11.00;4.50;;;;;;;;;;5068335;28;20464;-67
2022/10/21 14:16:48;;;;;;;9.02;4.18;;;;;;;;;;5070454;28;20332;-67
2022/10/21 14:19:17;;;;;;;10.30;4.43;;;;;;;;;;5070365;28;20555;-67
2022/10/21 14:21:45;;;;;;;13.40;4.43;;;;;;;;;;5069969;28;20093;-67
2022/10/21 14:24:26;;;;;;;8.45;4.60;;;;;;;;;;5072915;28;20047;-67
2022/10/21 14:26:52;;;;;;;8.10;4.90;;;;;;;;;;5074214;28;20037;-67
2022/10/21 14:29:19;;;;;;;8.95;5.60;;;;;;;;;;5073957;28;20537;-67
2022/10/21 14:31:45;;;;;;;12.63;4.57;;;;;;;;;;5074032;28;20036;-67
2022/10/21 14:34:21;;;;;;;9.20;4.32;;;;;;;;;;5074107;28;20040;-67